Time;durP1;ratioP1;P1;durP2;ratioP2;P2;SDS_P1;SDS_P2;PMS_P1;PMS_P2;Temp;Humidity;BMP_temperature;BMP_pressure;BME280_temperature;BME280_humidity;BME280_pressure;Samples;Min_cycle;Max_cycle;Signal;HPM_P1;HPM_P2
2022/06/20 00:01:45;;;;;;;5.97;1.30;;;;;;;;;;5050218;28;20049;-69
2022/06/20 00:04:15;;;;;;;9.00;1.80;;;;;;;;;;5052478;28;20493;-70
2022/06/20 00:06:41;;;;;;;9.95;1.73;;;;;;;;;;5049689;28;20490;-70
2022/06/20 00:09:07;;;;;;;7.80;1.45;;;;;;;;;;5051617;28;20430;-70
2022/06/20 00:11:39;;;;;;;9.20;1.65;;;;;;;;;;5051785;28;20475;-70
2022/06/20 00:14:05;;;;;;;7.82;1.48;;;;;;;;;;5052908;28;20094;-70
2022/06/20 00:16:33;;;;;;;9.68;1.60;;;;;;;;;;5053300;28;20036;-70
2022/06/20 00:18:59;;;;;;;7.82;1.60;;;;;;;;;;5053994;28;20083;-70
2022/06/20 00:21:25;;;;;;;10.85;1.70;;;;;;;;;;5051492;28;20049;-69
2022/06/20 00:23:52;;;;;;;6.65;1.48;;;;;;;;;;5050703;28;20044;-70
2022/06/20 00:26:18;;;;;;;10.55;1.60;;;;;;;;;;5052537;28;20128;-70
2022/06/20 00:28:44;;;;;;;6.38;1.40;;;;;;;;;;5052588;28;20069;-70
2022/06/20 00:31:11;;;;;;;11.15;1.73;;;;;;;;;;5032506;28;20438;-71
2022/06/20 00:33:37;;;;;;;8.93;1.35;;;;;;;;;;5051297;28;20052;-70
2022/06/20 00:36:03;;;;;;;8.38;1.92;;;;;;;;;;5053199;28;20406;-70
2022/06/20 00:38:30;;;;;;;9.38;1.67;;;;;;;;;;5049339;28;20782;-68
2022/06/20 00:40:58;;;;;;;7.47;1.70;;;;;;;;;;5039440;28;20056;-70
2022/06/20 00:43:41;;;;;;;9.27;1.70;;;;;;;;;;5047054;28;20041;-70
2022/06/20 00:46:09;;;;;;;6.50;1.77;;;;;;;;;;5052782;28;20056;-69
2022/06/20 00:48:43;;;;;;;10.70;1.95;;;;;;;;;;5052029;28;20049;-70
2022/06/20 00:51:15;;;;;;;8.57;1.80;;;;;;;;;;5052621;28;20120;-70
2022/06/20 00:53:44;;;;;;;7.70;1.70;;;;;;;;;;5051547;28;20041;-70
2022/06/20 00:56:17;;;;;;;11.98;2.08;;;;;;;;;;5053511;28;20037;-70
2022/06/20 00:59:12;;;;;;;10.20;1.58;;;;;;;;;;5043878;28;20059;-70
2022/06/20 01:01:40;;;;;;;9.48;1.83;;;;;;;;;;5029461;28;20471;-70
2022/06/20 01:04:30;;;;;;;6.68;1.67;;;;;;;;;;5049429;28;20043;-70
2022/06/20 01:06:56;;;;;;;9.00;1.70;;;;;;;;;;5038163;28;20056;-70
2022/06/20 01:09:28;;;;;;;7.43;1.58;;;;;;;;;;5050915;28;20041;-70
2022/06/20 01:11:57;;;;;;;8.48;1.60;;;;;;;;;;5046568;28;20518;-70
2022/06/20 01:14:25;;;;;;;11.65;1.92;;;;;;;;;;5049069;28;20044;-70
2022/06/20 01:16:57;;;;;;;7.47;1.63;;;;;;;;;;5035119;28;20087;-70
2022/06/20 01:19:39;;;;;;;8.05;1.73;;;;;;;;;;5051162;28;20446;-69
2022/06/20 01:22:09;;;;;;;9.07;1.60;;;;;;;;;;5048749;28;20193;-70
2022/06/20 01:24:40;;;;;;;6.05;1.58;;;;;;;;;;4999164;28;20049;-69
2022/06/20 01:27:32;;;;;;;9.05;1.60;;;;;;;;;;5035452;28;20091;-69
2022/06/20 01:29:58;;;;;;;8.85;1.83;;;;;;;;;;5052623;28;20102;-70
2022/06/20 01:32:24;;;;;;;9.90;1.67;;;;;;;;;;5046838;28;20041;-71
2022/06/20 01:34:51;;;;;;;6.78;1.58;;;;;;;;;;5035172;28;20045;-71
2022/06/20 01:37:25;;;;;;;9.73;1.60;;;;;;;;;;5051574;28;20049;-69
2022/06/20 01:39:52;;;;;;;9.30;2.45;;;;;;;;;;5052790;28;20060;-70
2022/06/20 01:42:19;;;;;;;11.15;1.90;;;;;;;;;;5046691;28;20071;-69
2022/06/20 01:44:47;;;;;;;8.88;1.60;;;;;;;;;;5049937;28;20053;-70
2022/06/20 01:47:13;;;;;;;8.88;2.08;;;;;;;;;;5052783;28;20045;-70
2022/06/20 01:49:40;;;;;;;10.63;2.03;;;;;;;;;;5052137;28;20575;-70
2022/06/20 01:52:14;;;;;;;12.38;2.08;;;;;;;;;;5049518;28;20051;-70
2022/06/20 01:54:45;;;;;;;8.85;1.80;;;;;;;;;;5051635;28;20044;-70
2022/06/20 01:57:12;;;;;;;9.07;2.08;;;;;;;;;;5048657;28;20511;-69
2022/06/20 01:59:41;;;;;;;9.52;2.03;;;;;;;;;;5051767;28;20048;-69
2022/06/20 02:02:08;;;;;;;9.88;1.77;;;;;;;;;;5047307;28;20033;-70
2022/06/20 02:04:37;;;;;;;8.18;2.03;;;;;;;;;;5048030;28;20045;-69
2022/06/20 02:07:07;;;;;;;7.78;1.73;;;;;;;;;;5051916;28;20045;-69
2022/06/20 02:09:34;;;;;;;9.73;1.80;;;;;;;;;;5051933;28;20060;-69
2022/06/20 02:12:02;;;;;;;9.57;2.20;;;;;;;;;;5049013;28;20495;-70
2022/06/20 02:14:37;;;;;;;8.65;1.73;;;;;;;;;;5048495;28;20045;-69
2022/06/20 02:17:06;;;;;;;9.93;1.90;;;;;;;;;;5052154;28;20106;-69
2022/06/20 02:19:35;;;;;;;8.93;1.88;;;;;;;;;;5051301;28;20114;-69
2022/06/20 02:22:02;;;;;;;10.23;2.20;;;;;;;;;;5029888;28;20048;-69
2022/06/20 02:24:36;;;;;;;8.45;1.83;;;;;;;;;;5051137;28;20466;-69
2022/06/20 02:27:04;;;;;;;7.13;2.00;;;;;;;;;;5050116;28;20503;-69
2022/06/20 02:29:31;;;;;;;10.13;2.05;;;;;;;;;;5052429;28;20049;-69
2022/06/20 02:31:59;;;;;;;9.10;2.13;;;;;;;;;;5052461;28;20395;-69
2022/06/20 02:34:28;;;;;;;9.93;2.22;;;;;;;;;;5054077;28;20045;-70
2022/06/20 02:36:55;;;;;;;10.40;2.40;;;;;;;;;;5054906;28;20044;-68
2022/06/20 02:39:21;;;;;;;10.73;2.28;;;;;;;;;;5056000;28;20495;-69
2022/06/20 02:41:50;;;;;;;8.73;2.03;;;;;;;;;;5052348;28;20049;-69
2022/06/20 02:44:17;;;;;;;8.77;2.10;;;;;;;;;;5054633;28;20048;-70
2022/06/20 02:46:46;;;;;;;7.90;1.90;;;;;;;;;;5054689;28;20033;-70
2022/06/20 02:49:14;;;;;;;12.50;2.40;;;;;;;;;;5056126;28;20052;-69
2022/06/20 02:51:42;;;;;;;8.52;1.98;;;;;;;;;;5052613;28;20117;-70
2022/06/20 02:54:11;;;;;;;10.98;2.50;;;;;;;;;;5054363;28;20048;-68
2022/06/20 02:56:41;;;;;;;9.23;2.33;;;;;;;;;;5054971;28;20164;-69
2022/06/20 02:59:13;;;;;;;8.30;2.47;;;;;;;;;;5052137;28;20407;-69
2022/06/20 03:01:39;;;;;;;10.77;2.33;;;;;;;;;;5050455;28;20382;-69
2022/06/20 03:04:06;;;;;;;8.10;2.10;;;;;;;;;;5037674;28;20133;-69
2022/06/20 03:06:34;;;;;;;8.93;2.22;;;;;;;;;;5040287;28;20045;-69
2022/06/20 03:09:00;;;;;;;13.45;2.63;;;;;;;;;;5037528;28;20049;-69
2022/06/20 03:11:27;;;;;;;8.75;2.35;;;;;;;;;;5035736;28;20518;-69
2022/06/20 03:13:55;;;;;;;12.00;2.20;;;;;;;;;;5053409;28;20454;-68
2022/06/20 03:16:21;;;;;;;11.40;2.60;;;;;;;;;;5053920;28;20045;-69
2022/06/20 03:18:49;;;;;;;10.80;2.25;;;;;;;;;;5054461;28;20068;-71
2022/06/20 03:21:18;;;;;;;8.98;2.42;;;;;;;;;;5033882;28;20045;-70
2022/06/20 03:23:44;;;;;;;8.88;2.20;;;;;;;;;;5054450;28;20191;-70
2022/06/20 03:26:13;;;;;;;9.52;2.50;;;;;;;;;;5052426;28;20045;-69
2022/06/20 03:28:39;;;;;;;11.57;2.60;;;;;;;;;;5036765;28;20049;-69
2022/06/20 03:31:06;;;;;;;9.75;2.30;;;;;;;;;;5035890;28;20040;-70
2022/06/20 03:33:32;;;;;;;10.63;2.80;;;;;;;;;;5053281;28;20045;-70
2022/06/20 03:36:01;;;;;;;9.68;2.60;;;;;;;;;;5053324;28;20491;-70
2022/06/20 03:38:27;;;;;;;9.63;2.30;;;;;;;;;;5053676;28;20522;-68
2022/06/20 03:40:53;;;;;;;10.52;2.42;;;;;;;;;;5052241;28;20399;-69
2022/06/20 03:43:23;;;;;;;8.70;2.40;;;;;;;;;;5054612;28;20048;-70
2022/06/20 03:45:53;;;;;;;9.45;2.65;;;;;;;;;;5054013;28;20057;-70
2022/06/20 03:48:21;;;;;;;9.90;2.22;;;;;;;;;;5019552;28;20052;-69
2022/06/20 03:50:53;;;;;;;11.38;2.25;;;;;;;;;;5053767;28;20045;-71
2022/06/20 03:53:32;;;;;;;10.93;2.20;;;;;;;;;;5054491;28;20053;-69
2022/06/20 03:56:05;;;;;;;7.18;2.00;;;;;;;;;;5054304;28;20070;-69
2022/06/20 03:58:57;;;;;;;9.10;2.35;;;;;;;;;;5053165;28;20129;-70
2022/06/20 04:01:36;;;;;;;8.40;2.30;;;;;;;;;;5045618;28;20118;-72
2022/06/20 04:04:16;;;;;;;10.32;2.47;;;;;;;;;;5040530;28;20049;-71
2022/06/20 04:06:48;;;;;;;9.13;2.50;;;;;;;;;;5053295;28;20040;-69
2022/06/20 04:12:05;;;;;;;9.68;2.45;;;;;;;;;;5053031;28;20077;-70
2022/06/20 04:14:37;;;;;;;8.20;2.50;;;;;;;;;;5035700;28;20036;-70
2022/06/20 04:19:55;;;;;;;6.80;2.08;;;;;;;;;;5034270;28;20092;-70
2022/06/20 04:22:27;;;;;;;6.45;1.88;;;;;;;;;;5046720;28;20041;-70
2022/06/20 04:25:05;;;;;;;8.32;2.60;;;;;;;;;;5035914;28;20123;-70
2022/06/20 04:27:39;;;;;;;11.70;2.40;;;;;;;;;;5051786;28;20049;-70
2022/06/20 04:30:09;;;;;;;6.80;2.03;;;;;;;;;;5051760;28;20037;-70
2022/06/20 04:32:38;;;;;;;10.20;2.20;;;;;;;;;;5049870;28;20094;-70
2022/06/20 04:35:07;;;;;;;8.23;1.70;;;;;;;;;;5052135;28;20091;-70
2022/06/20 04:37:46;;;;;;;7.15;1.92;;;;;;;;;;5034251;28;20041;-70
2022/06/20 04:40:15;;;;;;;9.07;2.20;;;;;;;;;;5053644;28;20045;-70
2022/06/20 04:42:45;;;;;;;7.60;2.03;;;;;;;;;;5052116;28;20124;-70
2022/06/20 04:45:11;;;;;;;6.72;1.67;;;;;;;;;;5035298;28;20055;-70
2022/06/20 04:47:42;;;;;;;9.02;2.15;;;;;;;;;;5052070;28;20041;-70
2022/06/20 04:50:08;;;;;;;;;;;;;;;;;;5054036;28;20057;-70
2022/06/20 04:52:34;;;;;;;8.30;2.00;;;;;;;;;;5050755;28;19967;-70
2022/06/20 04:55:01;;;;;;;6.93;2.00;;;;;;;;;;5053741;28;20056;-70
2022/06/20 04:57:29;;;;;;;8.93;2.15;;;;;;;;;;5051103;28;20044;-70
2022/06/20 04:59:57;;;;;;;7.63;1.85;;;;;;;;;;5053146;28;20051;-69
2022/06/20 05:02:24;;;;;;;9.63;2.30;;;;;;;;;;5041570;28;20037;-70
2022/06/20 05:04:52;;;;;;;8.38;2.35;;;;;;;;;;5033391;28;20049;-70
2022/06/20 05:07:23;;;;;;;10.60;2.35;;;;;;;;;;5048848;28;20087;-70
2022/06/20 05:10:07;;;;;;;11.00;2.58;;;;;;;;;;5052601;28;20067;-69
2022/06/20 05:12:52;;;;;;;6.93;2.10;;;;;;;;;;5051802;28;20051;-70
2022/06/20 05:15:37;;;;;;;9.52;2.55;;;;;;;;;;5053218;28;20045;-70
2022/06/20 05:18:18;;;;;;;8.60;2.45;;;;;;;;;;5042777;28;20045;-69
2022/06/20 05:20:44;;;;;;;;;;;;;;;;;;5023280;28;20067;-69
2022/06/20 05:23:16;;;;;;;9.75;2.53;;;;;;;;;;5050269;28;19920;-69
2022/06/20 05:25:42;;;;;;;9.15;2.35;;;;;;;;;;5051770;28;20143;-69
2022/06/20 05:28:19;;;;;;;11.23;3.15;;;;;;;;;;5047644;28;20041;-70
2022/06/20 05:30:46;;;;;;;8.10;2.00;;;;;;;;;;5052105;28;20056;-70
2022/06/20 05:33:28;;;;;;;9.35;2.20;;;;;;;;;;5052291;28;20507;-69
2022/06/20 05:35:54;;;;;;;9.32;2.35;;;;;;;;;;5051327;28;20463;-70
2022/06/20 05:38:25;;;;;;;11.43;2.50;;;;;;;;;;5050787;28;20044;-70
2022/06/20 05:40:53;;;;;;;9.60;2.30;;;;;;;;;;5051909;28;20049;-70
2022/06/20 05:43:20;;;;;;;7.53;1.85;;;;;;;;;;5052154;28;20049;-68
2022/06/20 05:45:53;;;;;;;8.52;1.92;;;;;;;;;;5051656;28;20075;-68
2022/06/20 05:48:22;;;;;;;11.73;2.20;;;;;;;;;;5051124;28;20509;-69
2022/06/20 05:50:48;;;;;;;10.23;2.35;;;;;;;;;;5033708;28;20085;-70
2022/06/20 05:53:23;;;;;;;10.60;2.22;;;;;;;;;;5051537;28;20098;-70
2022/06/20 05:55:49;;;;;;;8.90;2.20;;;;;;;;;;5036641;28;20381;-70
2022/06/20 05:58:18;;;;;;;9.82;2.10;;;;;;;;;;5035375;28;20076;-70
2022/06/20 06:00:45;;;;;;;11.35;2.13;;;;;;;;;;5050180;28;20076;-70
2022/06/20 06:03:11;;;;;;;9.50;1.98;;;;;;;;;;5041062;28;20033;-69
2022/06/20 06:05:40;;;;;;;8.25;2.13;;;;;;;;;;5041458;28;20094;-69
2022/06/20 06:08:22;;;;;;;10.65;2.13;;;;;;;;;;5055595;28;20045;-70
2022/06/20 06:10:51;;;;;;;9.00;2.00;;;;;;;;;;5055741;28;20457;-70
2022/06/20 06:13:44;;;;;;;10.02;2.35;;;;;;;;;;5055334;28;20080;-70
2022/06/20 06:19:01;;;;;;;7.85;2.10;;;;;;;;;;5055765;28;20787;-70
2022/06/20 06:21:28;;;;;;;13.15;2.60;;;;;;;;;;5054497;28;20045;-70
2022/06/20 06:23:54;;;;;;;9.93;2.10;;;;;;;;;;5019718;28;20167;-70
2022/06/20 06:26:20;;;;;;;8.05;2.08;;;;;;;;;;5055538;28;20041;-71
2022/06/20 06:28:48;;;;;;;9.57;2.13;;;;;;;;;;5037488;28;20079;-70
2022/06/20 06:31:34;;;;;;;8.13;2.15;;;;;;;;;;5054164;28;20495;-69
2022/06/20 06:34:00;;;;;;;7.05;2.22;;;;;;;;;;5029532;28;20041;-70
2022/06/20 06:36:26;;;;;;;12.20;2.30;;;;;;;;;;5051641;28;20049;-69
2022/06/20 06:39:11;;;;;;;8.80;2.42;;;;;;;;;;5029665;28;20041;-70
2022/06/20 06:41:41;;;;;;;8.48;2.13;;;;;;;;;;5052913;28;20051;-69
2022/06/20 06:44:33;;;;;;;9.30;2.58;;;;;;;;;;5055344;28;20053;-69
2022/06/20 06:47:00;;;;;;;9.68;2.70;;;;;;;;;;5035033;28;20057;-70
2022/06/20 06:49:39;;;;;;;11.05;2.80;;;;;;;;;;5035939;28;20042;-69
2022/06/20 06:52:09;;;;;;;8.20;2.20;;;;;;;;;;5052323;28;20049;-70
2022/06/20 06:54:41;;;;;;;9.10;2.45;;;;;;;;;;5055683;28;20055;-70
2022/06/20 06:57:16;;;;;;;8.18;2.53;;;;;;;;;;5036712;28;20418;-69
2022/06/20 06:59:52;;;;;;;8.20;2.55;;;;;;;;;;5047336;28;20038;-69
2022/06/20 07:02:22;;;;;;;12.48;2.63;;;;;;;;;;5050223;28;20049;-71
2022/06/20 07:04:54;;;;;;;9.38;2.88;;;;;;;;;;5055587;28;20041;-68
2022/06/20 07:07:24;;;;;;;10.95;2.97;;;;;;;;;;5046319;28;20140;-70
2022/06/20 07:09:51;;;;;;;10.35;2.38;;;;;;;;;;5053018;28;20045;-69
2022/06/20 07:12:23;;;;;;;8.77;2.22;;;;;;;;;;5053759;28;20503;-70
2022/06/20 07:14:54;;;;;;;6.97;2.33;;;;;;;;;;5054268;28;20064;-70
2022/06/20 07:17:27;;;;;;;10.30;2.00;;;;;;;;;;5052161;28;20040;-70
2022/06/20 07:19:53;;;;;;;7.85;2.20;;;;;;;;;;5036088;28;20103;-69
2022/06/20 07:22:20;;;;;;;7.93;1.75;;;;;;;;;;5052958;28;20045;-69
2022/06/20 07:24:47;;;;;;;6.45;2.10;;;;;;;;;;5053115;28;20033;-70
2022/06/20 07:27:20;;;;;;;8.30;1.83;;;;;;;;;;5052421;28;20395;-70
2022/06/20 07:29:59;;;;;;;7.72;1.92;;;;;;;;;;5053017;28;20099;-71
2022/06/20 07:32:35;;;;;;;6.22;1.90;;;;;;;;;;5044712;28;20041;-71
2022/06/20 07:35:06;;;;;;;10.70;2.28;;;;;;;;;;5054880;28;20048;-70
2022/06/20 07:37:38;;;;;;;8.15;2.03;;;;;;;;;;5050449;28;20049;-70
2022/06/20 07:40:16;;;;;;;8.88;1.80;;;;;;;;;;5053011;28;20049;-71
2022/06/20 07:42:49;;;;;;;8.68;2.03;;;;;;;;;;5053637;28;20084;-71
2022/06/20 07:45:20;;;;;;;7.78;1.92;;;;;;;;;;5036963;28;20040;-71
2022/06/20 07:47:49;;;;;;;9.27;2.22;;;;;;;;;;5054794;28;20045;-71
2022/06/20 07:50:18;;;;;;;8.70;2.08;;;;;;;;;;5054717;28;20075;-71
2022/06/20 07:52:52;;;;;;;9.25;2.20;;;;;;;;;;5053107;28;20122;-70
2022/06/20 07:55:22;;;;;;;9.50;2.40;;;;;;;;;;5051534;28;20041;-71
2022/06/20 07:58:14;;;;;;;8.55;2.00;;;;;;;;;;5054828;28;20052;-70
2022/06/20 08:00:42;;;;;;;9.27;2.30;;;;;;;;;;5030887;28;20060;-71
2022/06/20 08:03:08;;;;;;;10.77;2.67;;;;;;;;;;5016476;28;20514;-71
2022/06/20 08:05:35;;;;;;;8.77;2.17;;;;;;;;;;5036856;28;20033;-71
2022/06/20 08:08:01;;;;;;;8.07;2.30;;;;;;;;;;5053301;28;20037;-71
2022/06/20 08:10:48;;;;;;;8.82;2.40;;;;;;;;;;5054176;28;20049;-71
2022/06/20 08:13:24;;;;;;;7.85;2.17;;;;;;;;;;5054166;28;20048;-71
2022/06/20 08:15:53;;;;;;;7.55;2.42;;;;;;;;;;5034269;28;20499;-70
2022/06/20 08:18:20;;;;;;;10.60;2.70;;;;;;;;;;5050788;28;20044;-71
2022/06/20 08:20:48;;;;;;;9.88;2.40;;;;;;;;;;5053727;28;20053;-70
2022/06/20 08:23:33;;;;;;;9.15;2.28;;;;;;;;;;5047135;28;20037;-71
2022/06/20 08:26:01;;;;;;;7.88;2.00;;;;;;;;;;5032084;28;20045;-71
2022/06/20 08:28:32;;;;;;;9.90;2.50;;;;;;;;;;5050740;28;20455;-71
2022/06/20 08:30:58;;;;;;;;;;;;;;;;;;5054526;28;20399;-70
2022/06/20 08:33:30;;;;;;;14.52;3.22;;;;;;;;;;5052128;28;19936;-69
2022/06/20 08:35:56;;;;;;;8.82;2.60;;;;;;;;;;5052479;28;20451;-70
2022/06/20 08:38:22;;;;;;;10.50;2.75;;;;;;;;;;5035922;28;20083;-70
2022/06/20 08:41:06;;;;;;;9.73;2.58;;;;;;;;;;5053780;28;20093;-70
2022/06/20 08:43:42;;;;;;;7.97;2.35;;;;;;;;;;5049840;28;20045;-70
2022/06/20 08:46:14;;;;;;;9.05;2.20;;;;;;;;;;5053775;28;20052;-70
2022/06/20 08:48:44;;;;;;;10.93;2.45;;;;;;;;;;5048353;28;20518;-69
2022/06/20 08:51:28;;;;;;;10.43;2.58;;;;;;;;;;5023960;28;20087;-70
2022/06/20 08:54:00;;;;;;;8.82;2.63;;;;;;;;;;5044688;28;20136;-70
2022/06/20 08:56:45;;;;;;;7.30;2.47;;;;;;;;;;5038468;28;20047;-70
2022/06/20 08:59:11;;;;;;;9.45;2.40;;;;;;;;;;5043509;28;20064;-70
2022/06/20 09:01:49;;;;;;;9.85;2.40;;;;;;;;;;5049523;28;20049;-71
2022/06/20 09:04:38;;;;;;;8.13;2.28;;;;;;;;;;5033282;28;20047;-71
2022/06/20 09:07:14;;;;;;;8.95;2.05;;;;;;;;;;4970373;28;20055;-71
2022/06/20 09:09:40;;;;;;;10.15;2.38;;;;;;;;;;4970781;28;20058;-71
2022/06/20 09:12:15;;;;;;;10.45;2.38;;;;;;;;;;4963978;28;20047;-70
2022/06/20 09:15:01;;;;;;;8.15;2.00;;;;;;;;;;4965679;28;20393;-71
2022/06/20 09:17:48;;;;;;;8.75;1.90;;;;;;;;;;4966145;28;20059;-71
2022/06/20 09:20:20;;;;;;;7.18;1.90;;;;;;;;;;4947643;28;20496;-71
2022/06/20 09:22:49;;;;;;;8.15;1.73;;;;;;;;;;4969641;28;20039;-71
2022/06/20 09:25:32;;;;;;;6.57;1.63;;;;;;;;;;4955713;28;20061;-70
2022/06/20 09:28:07;;;;;;;5.68;1.10;;;;;;;;;;4969951;28;20062;-71
2022/06/20 09:30:42;;;;;;;5.90;1.33;;;;;;;;;;4969100;28;20057;-71
2022/06/20 09:33:14;;;;;;;4.70;1.38;;;;;;;;;;4969771;28;20043;-71
2022/06/20 09:36:00;;;;;;;11.73;1.23;;;;;;;;;;4970529;28;20425;-70
2022/06/20 09:38:44;;;;;;;3.92;1.13;;;;;;;;;;4964684;28;20557;-71
2022/06/20 09:41:19;;;;;;;5.30;1.10;;;;;;;;;;4966994;28;20050;-70
2022/06/20 09:43:50;;;;;;;5.38;1.30;;;;;;;;;;4998090;28;20055;-71
2022/06/20 09:46:16;;;;;;;;;;;;;;;;;;5030259;28;20158;-70
2022/06/20 09:48:44;;;;;;;5.80;1.20;;;;;;;;;;5049877;28;19928;-71
2022/06/20 09:51:14;;;;;;;6.75;1.40;;;;;;;;;;5048026;28;20103;-71
2022/06/20 09:53:46;;;;;;;5.80;1.40;;;;;;;;;;5046574;28;20045;-71
2022/06/20 09:56:16;;;;;;;6.70;1.77;;;;;;;;;;5047166;28;20049;-71
2022/06/20 09:58:58;;;;;;;6.25;1.50;;;;;;;;;;5045372;28;20507;-70
2022/06/20 10:01:30;;;;;;;6.60;1.50;;;;;;;;;;5051497;28;20041;-71
2022/06/20 10:04:15;;;;;;;5.63;1.20;;;;;;;;;;5051033;28;20037;-70
2022/06/20 10:06:59;;;;;;;7.65;1.15;;;;;;;;;;5049502;28;20048;-71
2022/06/20 10:09:34;;;;;;;8.32;1.40;;;;;;;;;;5047470;28;20052;-69
2022/06/20 10:12:15;;;;;;;6.13;1.42;;;;;;;;;;5031305;28;20073;-68
2022/06/20 10:15:01;;;;;;;7.20;1.33;;;;;;;;;;5049897;28;20057;-70
2022/06/20 10:17:33;;;;;;;5.88;1.40;;;;;;;;;;5049887;28;20037;-70
2022/06/20 10:20:18;;;;;;;8.88;1.77;;;;;;;;;;5032307;28;20041;-69
2022/06/20 10:22:56;;;;;;;5.97;1.50;;;;;;;;;;5046394;28;20041;-71
2022/06/20 10:25:47;;;;;;;6.40;1.33;;;;;;;;;;5039082;28;20592;-71
2022/06/20 10:28:22;;;;;;;6.97;1.63;;;;;;;;;;5033803;28;20060;-70
2022/06/20 10:31:02;;;;;;;7.88;1.50;;;;;;;;;;5052232;28;20037;-70
2022/06/20 10:33:39;;;;;;;6.28;1.48;;;;;;;;;;5046473;28;20045;-70
2022/06/20 10:36:17;;;;;;;5.45;1.30;;;;;;;;;;5045847;28;20045;-70
2022/06/20 10:39:02;;;;;;;5.13;1.30;;;;;;;;;;5045910;28;20041;-70
2022/06/20 10:41:33;;;;;;;6.30;1.20;;;;;;;;;;5048513;28;20053;-70
2022/06/20 10:44:11;;;;;;;4.50;1.38;;;;;;;;;;5049412;28;20056;-71
2022/06/20 10:46:40;;;;;;;6.32;1.50;;;;;;;;;;5050972;28;20045;-71
2022/06/20 10:49:25;;;;;;;8.77;1.70;;;;;;;;;;5034597;28;20037;-70
2022/06/20 10:52:03;;;;;;;6.45;1.65;;;;;;;;;;5051376;28;20053;-71
2022/06/20 10:54:33;;;;;;;6.20;1.50;;;;;;;;;;5055915;28;20134;-71
2022/06/20 10:56:59;;;;;;;6.75;1.60;;;;;;;;;;5035039;28;20051;-70
2022/06/20 10:59:38;;;;;;;16.13;1.95;;;;;;;;;;5055101;28;20051;-70
2022/06/20 11:02:23;;;;;;;8.13;1.70;;;;;;;;;;5035734;28;20057;-70
2022/06/20 11:05:08;;;;;;;5.25;1.23;;;;;;;;;;5053195;28;20526;-70
2022/06/20 11:07:40;;;;;;;8.55;2.95;;;;;;;;;;5054497;28;20127;-71
2022/06/20 11:10:19;;;;;;;5.28;1.10;;;;;;;;;;5051575;28;20068;-70
2022/06/20 11:12:53;;;;;;;5.25;1.30;;;;;;;;;;5056910;28;20041;-71
2022/06/20 11:15:23;;;;;;;4.85;1.30;;;;;;;;;;5054842;28;20049;-70
2022/06/20 11:17:49;;;;;;;4.68;1.10;;;;;;;;;;5055310;28;20098;-71
2022/06/20 11:20:22;;;;;;;5.13;1.70;;;;;;;;;;5044639;28;20049;-70
2022/06/20 11:23:01;;;;;;;5.13;1.30;;;;;;;;;;5032864;28;20388;-70
2022/06/20 11:25:46;;;;;;;6.30;1.08;;;;;;;;;;5034985;28;20115;-70
2022/06/20 11:28:15;;;;;;;7.25;1.10;;;;;;;;;;5037342;28;20124;-70
2022/06/20 11:30:44;;;;;;;5.47;1.00;;;;;;;;;;5054335;28;20044;-70
2022/06/20 11:33:22;;;;;;;4.13;1.08;;;;;;;;;;5054013;28;20503;-71
2022/06/20 11:35:53;;;;;;;6.82;1.25;;;;;;;;;;5055080;28;20033;-70
2022/06/20 11:38:42;;;;;;;5.05;1.00;;;;;;;;;;5054795;28;20041;-70
2022/06/20 11:41:22;;;;;;;8.65;1.40;;;;;;;;;;5052548;28;20056;-70
2022/06/20 11:44:07;;;;;;;8.25;1.35;;;;;;;;;;5053118;28;20403;-70
2022/06/20 11:46:52;;;;;;;7.03;1.35;;;;;;;;;;5036249;28;20045;-71
2022/06/20 11:49:18;;;;;;;7.55;1.50;;;;;;;;;;5054126;28;20470;-70
2022/06/20 11:52:03;;;;;;;6.82;1.20;;;;;;;;;;5053910;28;20032;-71
2022/06/20 11:54:34;;;;;;;5.97;1.48;;;;;;;;;;5036762;28;20059;-71
2022/06/20 11:57:04;;;;;;;7.63;1.33;;;;;;;;;;5052334;28;20037;-71
2022/06/20 11:59:30;;;;;;;6.93;1.17;;;;;;;;;;5053656;28;20403;-71
2022/06/20 12:02:01;;;;;;;8.43;1.58;;;;;;;;;;5035320;28;20084;-70
2022/06/20 12:04:36;;;;;;;10.80;2.20;;;;;;;;;;5054341;28;20052;-69
2022/06/20 12:07:14;;;;;;;6.80;1.58;;;;;;;;;;5035500;28;20049;-70
2022/06/20 12:09:44;;;;;;;5.70;1.58;;;;;;;;;;5036079;28;20111;-70
2022/06/20 12:12:21;;;;;;;6.45;1.55;;;;;;;;;;5049010;28;20056;-70
2022/06/20 12:14:59;;;;;;;10.55;1.38;;;;;;;;;;5048230;28;20049;-71
2022/06/20 12:17:37;;;;;;;7.05;1.35;;;;;;;;;;5035820;28;20041;-70
2022/06/20 12:23:20;;;;;;;7.00;1.35;;;;;;;;;;5048875;28;20037;-71
2022/06/20 12:26:02;;;;;;;11.75;2.00;;;;;;;;;;5048555;28;20128;-71
2022/06/20 12:28:28;;;;;;;7.55;1.38;;;;;;;;;;5051677;28;20080;-70
2022/06/20 12:31:12;;;;;;;9.55;1.50;;;;;;;;;;5050307;28;20056;-71
2022/06/20 12:33:40;;;;;;;7.30;1.42;;;;;;;;;;5053458;28;20406;-70
2022/06/20 12:36:15;;;;;;;9.95;1.60;;;;;;;;;;5053609;28;20057;-70
2022/06/20 12:38:44;;;;;;;7.20;1.42;;;;;;;;;;5053840;28;20060;-70
2022/06/20 12:41:12;;;;;;;8.80;1.30;;;;;;;;;;5051021;28;20069;-70
2022/06/20 12:43:41;;;;;;;9.20;1.48;;;;;;;;;;5051777;28;20056;-70
2022/06/20 12:46:15;;;;;;;4.75;1.42;;;;;;;;;;5050563;28;20051;-71
2022/06/20 12:48:41;;;;;;;7.00;1.58;;;;;;;;;;5047534;28;20045;-70
2022/06/20 12:51:20;;;;;;;6.28;1.40;;;;;;;;;;5025807;28;20049;-69
2022/06/20 12:53:55;;;;;;;6.68;1.30;;;;;;;;;;5047587;28;20061;-70
2022/06/20 12:56:24;;;;;;;10.63;1.55;;;;;;;;;;5051208;28;20048;-69
2022/06/20 12:58:53;;;;;;;10.43;1.20;;;;;;;;;;5049238;28;20045;-70
2022/06/20 13:01:19;;;;;;;6.70;1.45;;;;;;;;;;5049598;28;20045;-70
2022/06/20 13:04:10;;;;;;;6.88;1.27;;;;;;;;;;5051623;28;20480;-70
2022/06/20 13:06:36;;;;;;;;;;;;;;;;;;5048571;28;20124;-70
2022/06/20 13:09:05;;;;;;;7.25;1.67;;;;;;;;;;5032833;28;19947;-70
2022/06/20 13:11:35;;;;;;;6.95;1.50;;;;;;;;;;5045920;28;20983;-70
2022/06/20 13:14:07;;;;;;;6.95;1.60;;;;;;;;;;5050520;28;20048;-69
2022/06/20 13:16:53;;;;;;;10.15;1.80;;;;;;;;;;5045977;28;20045;-71
2022/06/20 13:19:40;;;;;;;9.70;1.88;;;;;;;;;;5052352;28;20391;-70
2022/06/20 13:22:16;;;;;;;5.55;1.30;;;;;;;;;;5052244;28;20120;-71
2022/06/20 13:25:01;;;;;;;4.70;1.27;;;;;;;;;;5052717;28;20124;-71
2022/06/20 13:27:41;;;;;;;9.20;1.45;;;;;;;;;;5033216;28;20037;-70
2022/06/20 13:30:26;;;;;;;8.25;1.15;;;;;;;;;;5052582;28;20045;-71
2022/06/20 13:33:18;;;;;;;7.72;1.67;;;;;;;;;;5052493;28;20052;-70
2022/06/20 13:36:04;;;;;;;6.22;1.52;;;;;;;;;;5019182;28;20052;-70
2022/06/20 13:38:41;;;;;;;7.03;1.30;;;;;;;;;;5035005;28;20048;-71
2022/06/20 13:41:13;;;;;;;9.02;1.55;;;;;;;;;;5051147;28;20061;-69
2022/06/20 13:43:46;;;;;;;7.78;1.33;;;;;;;;;;5047576;28;20521;-70
2022/06/20 13:46:23;;;;;;;6.25;1.30;;;;;;;;;;5046556;28;20110;-70
2022/06/20 13:48:51;;;;;;;4.72;1.20;;;;;;;;;;5045425;28;20047;-70
2022/06/20 13:51:17;;;;;;;6.38;1.60;;;;;;;;;;5052260;28;20427;-70
2022/06/20 13:53:50;;;;;;;8.10;1.30;;;;;;;;;;5052578;28;20120;-70
2022/06/20 13:56:30;;;;;;;5.82;1.20;;;;;;;;;;5051632;28;20072;-70
2022/06/20 13:59:17;;;;;;;5.82;1.73;;;;;;;;;;5034746;28;20049;-70
2022/06/20 14:01:54;;;;;;;5.55;1.35;;;;;;;;;;5052122;28;20045;-71
2022/06/20 14:04:21;;;;;;;5.68;1.40;;;;;;;;;;5051856;28;20103;-70
2022/06/20 14:06:47;;;;;;;6.80;1.40;;;;;;;;;;5051406;28;20498;-70
2022/06/20 14:09:18;;;;;;;5.63;1.33;;;;;;;;;;5051204;28;20060;-72
2022/06/20 14:11:48;;;;;;;5.93;1.65;;;;;;;;;;5049168;28;20045;-70
2022/06/20 14:14:24;;;;;;;6.50;1.55;;;;;;;;;;5046077;28;20041;-70
2022/06/20 14:16:52;;;;;;;11.50;2.13;;;;;;;;;;5043282;28;20132;-70
2022/06/20 14:19:24;;;;;;;8.25;1.83;;;;;;;;;;5033494;28;20479;-69
2022/06/20 14:21:54;;;;;;;8.32;2.45;;;;;;;;;;5049109;28;20091;-74
2022/06/20 14:24:22;;;;;;;8.50;1.73;;;;;;;;;;5050763;28;20096;-70
2022/06/20 14:26:57;;;;;;;6.63;1.77;;;;;;;;;;5050896;28;20044;-70
2022/06/20 14:29:24;;;;;;;8.75;2.13;;;;;;;;;;5048327;28;20037;-70
2022/06/20 14:31:57;;;;;;;8.95;1.95;;;;;;;;;;5048799;28;20055;-71
2022/06/20 14:34:25;;;;;;;8.60;1.90;;;;;;;;;;5021298;28;20050;-69
2022/06/20 14:37:09;;;;;;;6.20;1.92;;;;;;;;;;5053251;28;20053;-69
2022/06/20 14:39:50;;;;;;;6.80;2.03;;;;;;;;;;5053269;28;20458;-69
2022/06/20 14:42:16;;;;;;;;;;;;;;;;;;5044806;28;20053;-70
2022/06/20 14:44:48;;;;;;;7.30;2.30;;;;;;;;;;5035935;28;20280;-70
2022/06/20 14:47:33;;;;;;;6.15;1.65;;;;;;;;;;5019428;28;20045;-71
2022/06/20 14:50:06;;;;;;;6.95;1.90;;;;;;;;;;5053057;28;20450;-70
2022/06/20 14:52:41;;;;;;;7.03;1.73;;;;;;;;;;5034180;28;20132;-69
2022/06/20 14:55:17;;;;;;;7.00;1.90;;;;;;;;;;5053351;28;20049;-70
2022/06/20 14:57:45;;;;;;;7.05;1.60;;;;;;;;;;5035703;28;20040;-70
2022/06/20 15:00:14;;;;;;;4.60;1.67;;;;;;;;;;5050304;28;20094;-69
2022/06/20 15:02:52;;;;;;;7.35;1.83;;;;;;;;;;5055686;28;20049;-70
2022/06/20 15:05:38;;;;;;;6.47;1.80;;;;;;;;;;5055117;28;20048;-70
2022/06/20 15:08:22;;;;;;;7.50;1.88;;;;;;;;;;5054371;28;20494;-70
2022/06/20 15:10:51;;;;;;;6.25;1.70;;;;;;;;;;5044278;28;20052;-70
2022/06/20 15:13:25;;;;;;;8.40;2.13;;;;;;;;;;5051590;28;20053;-70
2022/06/20 15:15:51;;;;;;;6.60;1.95;;;;;;;;;;5051222;28;20499;-71
2022/06/20 15:18:17;;;;;;;7.38;2.10;;;;;;;;;;5054408;28;20048;-71
2022/06/20 15:20:55;;;;;;;10.13;2.20;;;;;;;;;;5053364;28;20130;-71
2022/06/20 15:23:32;;;;;;;7.82;1.92;;;;;;;;;;5038060;28;20422;-70
2022/06/20 15:26:01;;;;;;;7.22;1.63;;;;;;;;;;5047870;28;20495;-71
2022/06/20 15:28:30;;;;;;;7.55;1.70;;;;;;;;;;5033456;28;20052;-70